createdAt,value
2018-08-25T00:02:29.191Z,14.00
2018-08-25T00:05:32.453Z,14.00
2018-08-25T00:08:35.722Z,14.00
2018-08-25T00:11:39.144Z,14.00
2018-08-25T00:14:42.388Z,14.10
2018-08-25T00:17:45.810Z,14.10
2018-08-25T00:20:49.134Z,14.20
2018-08-25T00:23:52.298Z,14.20
2018-08-25T00:26:55.598Z,14.20
2018-08-25T00:29:58.839Z,14.30
2018-08-25T00:33:02.187Z,14.30
2018-08-25T00:36:05.531Z,14.20
2018-08-25T00:39:09.298Z,14.20
2018-08-25T00:42:12.538Z,14.10
2018-08-25T00:45:30.323Z,14.20
2018-08-25T00:48:33.571Z,14.10
2018-08-25T00:51:36.945Z,14.10
2018-08-25T00:54:40.317Z,14.00
2018-08-25T00:57:43.611Z,13.90
2018-08-25T01:00:47.218Z,13.90
2018-08-25T01:03:50.542Z,13.90
2018-08-25T01:06:53.838Z,13.90
2018-08-25T01:09:57.143Z,13.90
2018-08-25T01:13:00.571Z,14.00
2018-08-25T01:16:03.923Z,14.00
2018-08-25T01:19:07.928Z,13.90
2018-08-25T01:22:11.491Z,14.00
2018-08-25T01:25:14.763Z,14.00
2018-08-25T01:28:17.923Z,14.00
2018-08-25T01:31:21.294Z,14.00
2018-08-25T01:34:24.574Z,14.00
2018-08-25T01:37:27.867Z,14.10
2018-08-25T01:40:31.202Z,14.00
2018-08-25T01:43:34.483Z,14.00
2018-08-25T01:46:37.864Z,14.00
2018-08-25T01:49:41.253Z,14.00
2018-08-25T01:52:44.597Z,13.90
2018-08-25T01:55:47.778Z,13.90
2018-08-25T01:58:51.186Z,13.90
2018-08-25T02:01:54.438Z,13.90
2018-08-25T02:04:57.699Z,13.90
2018-08-25T02:08:03.924Z,13.90
2018-08-25T02:11:07.125Z,13.90
2018-08-25T02:14:11.028Z,13.90
2018-08-25T02:17:14.242Z,13.90
2018-08-25T02:20:17.451Z,13.90
2018-08-25T02:23:20.714Z,13.90
2018-08-25T02:26:24.055Z,13.90
2018-08-25T02:29:27.337Z,13.90
2018-08-25T02:32:30.651Z,13.90
2018-08-25T02:35:33.933Z,14.00
2018-08-25T02:38:37.318Z,14.00
2018-08-25T02:41:40.739Z,13.90
2018-08-25T02:44:44.146Z,13.90
2018-08-25T02:47:47.420Z,13.90
2018-08-25T02:50:50.733Z,13.90
2018-08-25T02:53:54.077Z,13.80
2018-08-25T02:56:57.355Z,13.90
2018-08-25T03:00:00.622Z,13.80
2018-08-25T03:03:03.843Z,13.80
2018-08-25T03:06:07.062Z,13.80
2018-08-25T03:09:11.801Z,13.80
2018-08-25T03:16:00.093Z,13.80
2018-08-25T03:19:03.153Z,13.90
2018-08-25T03:22:06.282Z,13.90
2018-08-25T03:25:09.363Z,13.90
2018-08-25T03:28:12.441Z,14.00
2018-08-25T03:31:15.499Z,14.00
2018-08-25T03:34:18.565Z,14.00
2018-08-25T03:37:21.637Z,14.00
2018-08-25T03:40:24.718Z,14.00
2018-08-25T03:43:27.816Z,14.00
2018-08-25T03:46:30.889Z,13.90
2018-08-25T03:49:33.966Z,13.90
2018-08-25T03:52:37.039Z,13.90
2018-08-25T03:55:40.118Z,13.90
2018-08-25T03:58:43.213Z,13.90
2018-08-25T04:01:46.309Z,13.90
2018-08-25T04:04:49.413Z,13.90
2018-08-25T04:07:52.492Z,13.80
2018-08-25T04:10:55.586Z,13.80
2018-08-25T04:13:58.693Z,13.70
2018-08-25T04:17:01.785Z,13.70
2018-08-25T04:20:05.140Z,13.70
2018-08-25T04:23:08.213Z,13.60
2018-08-25T04:26:11.291Z,13.70
2018-08-25T04:29:14.545Z,13.70
2018-08-25T04:32:17.654Z,13.80
2018-08-25T04:35:20.740Z,13.90
2018-08-25T04:38:23.803Z,13.90
2018-08-25T04:41:27.022Z,13.90
2018-08-25T04:44:30.093Z,13.90
2018-08-25T04:47:33.171Z,14.00
2018-08-25T04:50:36.502Z,14.00
2018-08-25T04:53:39.609Z,14.00
2018-08-25T04:56:42.700Z,14.10
2018-08-25T04:59:45.766Z,14.10
2018-08-25T05:02:48.884Z,14.10
2018-08-25T05:05:51.926Z,14.10
2018-08-25T05:08:55.061Z,14.10
2018-08-25T05:11:58.159Z,14.10
2018-08-25T05:15:01.239Z,14.10
2018-08-25T05:18:04.326Z,14.10
2018-08-25T05:21:07.401Z,14.10
2018-08-25T05:24:10.469Z,14.20
2018-08-25T05:27:13.533Z,14.20
2018-08-25T05:30:16.602Z,14.30
2018-08-25T05:33:19.694Z,14.30
2018-08-25T05:36:22.789Z,14.50
2018-08-25T05:39:25.860Z,14.50
2018-08-25T05:42:29.008Z,14.60
2018-08-25T05:45:32.074Z,14.70
2018-08-25T05:48:35.165Z,14.90
2018-08-25T05:51:38.277Z,14.90
2018-08-25T05:54:41.350Z,15.10
2018-08-25T05:57:44.542Z,15.30
2018-08-25T06:00:47.538Z,15.40
2018-08-25T06:03:50.758Z,15.70
2018-08-25T06:06:53.849Z,15.80
2018-08-25T06:09:56.925Z,16.00
2018-08-25T06:13:00.017Z,16.40
2018-08-25T06:16:03.114Z,16.90
2018-08-25T06:19:06.408Z,17.00
2018-08-25T06:22:09.486Z,16.70
2018-08-25T06:25:12.546Z,16.50
2018-08-25T06:28:15.605Z,16.40
2018-08-25T06:31:18.682Z,16.20
2018-08-25T06:34:21.793Z,16.30
2018-08-25T06:37:24.867Z,16.90
2018-08-25T06:40:27.961Z,17.20
2018-08-25T06:43:31.082Z,17.20
2018-08-25T06:46:34.154Z,17.20
2018-08-25T06:49:37.248Z,17.30
2018-08-25T06:52:40.367Z,17.30
2018-08-25T06:55:43.413Z,17.20
2018-08-25T06:58:46.489Z,17.30
2018-08-25T07:01:49.617Z,17.50
2018-08-25T07:04:52.742Z,17.40
2018-08-25T07:07:55.803Z,17.30
2018-08-25T07:10:58.897Z,17.80
2018-08-25T07:14:01.991Z,18.20
2018-08-25T07:17:05.084Z,18.10
2018-08-25T07:20:08.137Z,17.70
2018-08-25T07:23:11.205Z,17.10
2018-08-25T07:26:14.393Z,16.60
2018-08-25T07:32:47.382Z,16.00
2018-08-25T07:35:50.457Z,15.80
2018-08-25T07:38:53.523Z,15.80
2018-08-25T07:41:56.598Z,15.70
2018-08-25T07:44:59.666Z,15.70
2018-08-25T07:48:02.747Z,15.80
2018-08-25T07:51:05.837Z,15.80
2018-08-25T07:54:08.890Z,15.80
2018-08-25T07:57:11.962Z,15.80
2018-08-25T08:00:15.187Z,15.90
2018-08-25T08:03:28.155Z,16.10
2018-08-25T08:06:31.622Z,16.30
2018-08-25T08:09:34.681Z,16.40
2018-08-25T08:12:37.775Z,16.30
2018-08-25T08:15:40.857Z,16.20
2018-08-25T08:18:43.924Z,16.00
2018-08-25T08:21:47.038Z,16.00
2018-08-25T08:24:50.127Z,15.90
2018-08-25T08:27:53.217Z,15.80
2018-08-25T08:30:56.337Z,15.70
2018-08-25T08:33:59.426Z,15.50
2018-08-25T08:37:02.512Z,15.10
2018-08-25T08:40:09.500Z,14.80
2018-08-25T08:43:12.637Z,14.50
2018-08-25T08:46:19.975Z,14.40
2018-08-25T08:49:23.065Z,14.30
2018-08-25T08:52:26.147Z,14.30
2018-08-25T08:55:29.241Z,14.30
2018-08-25T08:58:32.339Z,14.20
2018-08-25T09:01:35.389Z,14.10
2018-08-25T09:04:38.474Z,14.00
2018-08-25T09:07:41.581Z,13.80
2018-08-25T09:10:44.669Z,13.70
2018-08-25T09:13:48.043Z,13.70
2018-08-25T09:16:51.114Z,13.90
2018-08-25T09:19:54.196Z,14.10
2018-08-25T09:23:06.950Z,14.20
2018-08-25T09:26:10.021Z,14.20
2018-08-25T09:29:13.102Z,14.20
2018-08-25T09:32:16.181Z,14.20
2018-08-25T09:35:19.292Z,14.40
2018-08-25T09:38:22.383Z,14.70
2018-08-25T09:41:25.454Z,15.20
2018-08-25T09:44:28.547Z,15.20
2018-08-25T09:47:31.971Z,15.20
2018-08-25T09:50:35.045Z,15.40
2018-08-25T09:53:38.217Z,15.80
2018-08-25T09:56:41.212Z,16.10
2018-08-25T09:59:44.304Z,16.50
2018-08-25T10:02:47.411Z,16.60
2018-08-25T10:05:50.577Z,16.50
2018-08-25T10:08:53.754Z,16.60
2018-08-25T10:11:56.830Z,16.50
2018-08-25T10:15:00.098Z,16.60
2018-08-25T10:18:03.174Z,16.80
2018-08-25T10:21:06.345Z,16.90
2018-08-25T10:24:09.679Z,16.90
2018-08-25T10:27:12.742Z,16.90
2018-08-25T10:30:15.818Z,17.10
2018-08-25T10:33:25.578Z,17.10
2018-08-25T10:36:28.638Z,17.30
2018-08-25T10:39:31.730Z,17.40
2018-08-25T10:42:34.837Z,17.40
2018-08-25T10:45:37.938Z,17.60
2018-08-25T10:48:41.016Z,17.80
2018-08-25T10:51:44.106Z,18.00
2018-08-25T10:54:47.181Z,18.30
2018-08-25T10:57:50.244Z,18.50
2018-08-25T11:00:53.405Z,18.70
2018-08-25T11:03:56.390Z,18.70
2018-08-25T11:06:59.461Z,18.60
2018-08-25T11:10:02.532Z,18.70
2018-08-25T11:13:05.635Z,18.40
2018-08-25T11:16:08.656Z,18.10
2018-08-25T11:19:11.773Z,17.70
2018-08-25T11:22:15.150Z,17.50
2018-08-25T11:25:18.286Z,17.00
2018-08-25T11:28:21.378Z,16.40
2018-08-25T11:31:24.426Z,15.90
2018-08-25T11:34:27.525Z,15.70
2018-08-25T11:37:30.673Z,15.80
2018-08-25T11:40:33.647Z,16.10
2018-08-25T11:43:36.725Z,16.70
2018-08-25T11:46:39.795Z,17.00
2018-08-25T11:49:43.294Z,17.30
2018-08-25T11:52:46.365Z,17.40
2018-08-25T11:55:49.446Z,17.30
2018-08-25T11:58:52.525Z,17.30
2018-08-25T12:01:55.605Z,17.60
2018-08-25T12:04:58.700Z,17.50
2018-08-25T12:08:01.757Z,17.50
2018-08-25T12:11:04.983Z,17.60
2018-08-25T12:14:08.060Z,17.80
2018-08-25T12:17:11.137Z,17.80
2018-08-25T12:20:14.219Z,17.60
2018-08-25T12:23:17.314Z,17.40
2018-08-25T12:26:20.394Z,17.20
2018-08-25T12:29:23.489Z,17.00
2018-08-25T12:32:26.545Z,16.60
2018-08-25T12:35:36.281Z,16.30
2018-08-25T12:38:39.353Z,16.40
2018-08-25T12:41:42.518Z,16.40
2018-08-25T12:44:45.557Z,16.10
2018-08-25T12:47:48.633Z,15.60
2018-08-25T12:50:51.722Z,15.30
2018-08-25T12:53:54.841Z,14.90
2018-08-25T12:56:57.925Z,14.70
2018-08-25T13:00:01.091Z,14.50
2018-08-25T13:03:04.191Z,14.30
2018-08-25T13:06:07.261Z,14.40
2018-08-25T13:09:11.589Z,14.60
2018-08-25T13:12:14.697Z,14.80
2018-08-25T13:15:17.778Z,15.10
2018-08-25T13:18:20.842Z,15.30
2018-08-25T13:21:23.902Z,15.60
2018-08-25T13:24:26.945Z,15.90
2018-08-25T13:27:30.021Z,16.10
2018-08-25T13:30:33.101Z,16.20
2018-08-25T13:33:36.249Z,16.10
2018-08-25T13:36:39.362Z,16.20
2018-08-25T13:39:42.434Z,16.20
2018-08-25T13:42:45.490Z,16.10
2018-08-25T13:45:48.569Z,16.00
2018-08-25T13:48:51.637Z,15.90
2018-08-25T13:51:54.699Z,15.80
2018-08-25T13:54:57.761Z,15.80
2018-08-25T13:58:01.817Z,15.70
2018-08-25T14:01:13.373Z,15.80
2018-08-25T14:04:16.436Z,15.70
2018-08-25T14:07:19.513Z,15.80
2018-08-25T14:10:22.629Z,15.70
2018-08-25T14:13:25.769Z,15.70
2018-08-25T14:16:28.943Z,15.80
2018-08-25T14:19:31.920Z,15.80
2018-08-25T14:22:35.903Z,15.90
2018-08-25T14:25:38.967Z,16.20
2018-08-25T14:28:42.131Z,16.30
2018-08-25T14:31:45.187Z,16.50
2018-08-25T14:34:48.278Z,16.70
2018-08-25T14:37:51.369Z,16.90
2018-08-25T14:40:54.514Z,17.10
2018-08-25T14:43:57.671Z,17.20
2018-08-25T14:47:00.752Z,17.00
2018-08-25T14:50:03.817Z,16.70
2018-08-25T14:53:06.970Z,16.50
2018-08-25T14:56:10.033Z,16.20
2018-08-25T14:59:13.097Z,16.00
2018-08-25T15:02:16.174Z,16.10
2018-08-25T15:05:25.437Z,16.10
2018-08-25T15:08:28.535Z,16.20
2018-08-25T15:11:31.602Z,16.30
2018-08-25T15:14:34.670Z,16.20
2018-08-25T15:17:37.759Z,16.10
2018-08-25T15:20:40.836Z,16.10
2018-08-25T15:23:43.920Z,16.30
2018-08-25T15:26:47.027Z,16.60
2018-08-25T15:29:50.109Z,16.80
2018-08-25T15:32:53.209Z,16.90
2018-08-25T15:35:56.297Z,17.00
2018-08-25T15:38:59.394Z,17.20
2018-08-25T15:42:02.518Z,17.20
2018-08-25T15:45:05.610Z,17.20
2018-08-25T15:48:08.702Z,17.20
2018-08-25T15:51:11.798Z,17.30
2018-08-25T15:54:14.866Z,17.40
2018-08-25T15:57:18.001Z,17.40
2018-08-25T16:00:21.066Z,17.50
2018-08-25T16:03:24.150Z,17.30
2018-08-25T16:06:27.236Z,17.10
2018-08-25T16:09:30.318Z,17.10
2018-08-25T16:12:33.494Z,17.00
2018-08-25T16:15:36.493Z,16.90
2018-08-25T16:18:39.606Z,16.80
2018-08-25T16:21:42.646Z,16.60
2018-08-25T16:24:45.801Z,16.30
2018-08-25T16:27:48.987Z,16.00
2018-08-25T16:30:52.133Z,15.60
2018-08-25T16:33:55.201Z,15.30
2018-08-25T16:36:58.372Z,15.20
2018-08-25T16:40:01.467Z,15.30
2018-08-25T16:43:04.559Z,15.50
2018-08-25T16:46:07.617Z,15.70
2018-08-25T16:49:10.693Z,15.80
2018-08-25T16:52:13.776Z,15.90
2018-08-25T16:55:16.881Z,16.00
2018-08-25T16:58:19.928Z,15.90
2018-08-25T17:01:23.117Z,15.80
2018-08-25T17:04:26.405Z,15.70
2018-08-25T17:07:29.461Z,15.60
2018-08-25T17:10:32.566Z,15.50
2018-08-25T17:13:35.653Z,15.40
2018-08-25T17:16:38.733Z,15.40
2018-08-25T17:19:42.021Z,15.30
2018-08-25T17:22:45.273Z,15.30
2018-08-25T17:25:48.351Z,15.30
2018-08-25T17:28:51.434Z,15.20
2018-08-25T17:31:54.565Z,15.10
2018-08-25T17:34:57.649Z,15.10
2018-08-25T17:38:00.726Z,15.00
2018-08-25T17:41:03.867Z,14.90
2018-08-25T17:44:06.988Z,14.80
2018-08-25T17:47:10.061Z,14.70
2018-08-25T17:50:13.449Z,14.60
2018-08-25T17:53:16.536Z,14.50
2018-08-25T17:56:19.631Z,14.40
2018-08-25T17:59:22.724Z,14.40
2018-08-25T18:02:25.838Z,14.30
2018-08-25T18:05:28.946Z,14.30
2018-08-25T18:08:32.037Z,14.20
2018-08-25T18:11:39.773Z,14.20
2018-08-25T18:14:42.868Z,14.10
2018-08-25T18:17:45.943Z,14.00
2018-08-25T18:20:48.999Z,13.90
2018-08-25T18:23:52.056Z,13.80
2018-08-25T18:26:55.905Z,13.70
2018-08-25T18:29:58.982Z,13.60
2018-08-25T18:33:02.075Z,13.40
2018-08-25T18:36:05.194Z,13.40
2018-08-25T18:39:10.426Z,13.30
2018-08-25T18:42:13.568Z,13.30
2018-08-25T18:45:16.633Z,13.30
2018-08-25T18:48:19.831Z,13.20
2018-08-25T18:51:22.754Z,13.20
2018-08-25T18:54:25.991Z,13.10
2018-08-25T18:57:29.085Z,13.00
2018-08-25T19:00:32.670Z,13.00
2018-08-25T19:03:35.775Z,12.90
2018-08-25T19:06:38.805Z,12.80
2018-08-25T19:09:41.877Z,12.70
2018-08-25T19:12:44.940Z,12.70
2018-08-25T19:15:48.018Z,12.70
2018-08-25T19:18:51.070Z,12.50
2018-08-25T19:21:54.174Z,12.50
2018-08-25T19:24:57.260Z,12.40
2018-08-25T19:28:00.322Z,12.40
2018-08-25T19:31:03.417Z,12.30
2018-08-25T19:34:06.494Z,12.20
2018-08-25T19:37:09.574Z,12.20
2018-08-25T19:40:12.652Z,12.20
2018-08-25T19:43:15.702Z,12.10
2018-08-25T19:46:18.842Z,12.10
2018-08-25T19:49:21.913Z,12.00
2018-08-25T19:52:25.010Z,11.90
2018-08-25T19:55:28.077Z,11.90
2018-08-25T19:58:31.185Z,11.90
2018-08-25T20:01:34.265Z,11.80
2018-08-25T20:04:37.345Z,11.80
2018-08-25T20:07:40.442Z,11.80
2018-08-25T20:10:43.547Z,11.80
2018-08-25T20:13:46.735Z,11.80
2018-08-25T20:16:49.758Z,11.90
2018-08-25T20:19:52.941Z,11.90
2018-08-25T20:22:56.046Z,11.90
2018-08-25T20:25:59.155Z,11.90
2018-08-25T20:29:02.221Z,11.90
2018-08-25T20:32:05.326Z,11.90
2018-08-25T20:35:08.641Z,11.80
2018-08-25T20:38:11.789Z,11.70
2018-08-25T20:41:14.909Z,11.60
2018-08-25T20:44:18.237Z,11.50
2018-08-25T20:47:21.322Z,11.50
2018-08-25T20:50:24.429Z,11.50
2018-08-25T20:53:27.547Z,11.40
2018-08-25T20:56:31.296Z,11.40
2018-08-25T20:59:34.374Z,11.30
2018-08-25T21:02:37.505Z,11.30
2018-08-25T21:05:40.573Z,11.30
2018-08-25T21:08:43.645Z,11.30
2018-08-25T21:11:46.711Z,11.30
2018-08-25T21:14:49.770Z,11.30
2018-08-25T21:17:52.837Z,11.20
2018-08-25T21:20:55.949Z,11.10
2018-08-25T21:23:59.034Z,11.10
2018-08-25T21:27:02.092Z,11.10
2018-08-25T21:30:06.859Z,11.10
2018-08-25T21:33:09.916Z,11.10
2018-08-25T21:36:12.977Z,11.00
2018-08-25T21:39:16.188Z,11.00
2018-08-25T21:42:19.589Z,11.00
2018-08-25T21:45:22.692Z,10.90
2018-08-25T21:48:25.753Z,10.90
2018-08-25T21:51:28.845Z,10.80
2018-08-25T21:54:31.894Z,10.80
2018-08-25T21:57:34.945Z,10.80
2018-08-25T22:00:42.241Z,10.80
2018-08-25T22:03:45.309Z,10.80
2018-08-25T22:06:48.371Z,10.70
2018-08-25T22:09:51.433Z,10.70
2018-08-25T22:12:54.509Z,10.70
2018-08-25T22:15:57.586Z,10.60
2018-08-25T22:19:00.678Z,10.60
2018-08-25T22:22:03.762Z,10.50
2018-08-25T22:25:06.800Z,10.50
2018-08-25T22:28:09.857Z,10.50
2018-08-25T22:31:13.075Z,10.40
2018-08-25T22:34:16.143Z,10.40
2018-08-25T22:37:19.183Z,10.40
2018-08-25T22:40:22.427Z,10.40
2018-08-25T22:43:25.498Z,10.40
2018-08-25T22:46:28.625Z,10.40
2018-08-25T22:49:31.701Z,10.40
2018-08-25T22:52:40.118Z,10.30
2018-08-25T22:55:43.193Z,10.30
2018-08-25T22:58:46.246Z,10.30
2018-08-25T23:01:49.329Z,10.30
2018-08-25T23:05:05.489Z,10.30
2018-08-25T23:08:08.569Z,10.30
2018-08-25T23:11:11.635Z,10.30
2018-08-25T23:14:14.697Z,10.30
2018-08-25T23:17:17.784Z,10.20
2018-08-25T23:20:20.842Z,10.20
2018-08-25T23:23:23.939Z,10.20
2018-08-25T23:26:27.233Z,10.20
2018-08-25T23:29:30.298Z,10.20
2018-08-25T23:32:33.390Z,10.10
2018-08-25T23:35:36.481Z,10.00
2018-08-25T23:38:39.574Z,10.00
2018-08-25T23:41:42.711Z,9.90
2018-08-25T23:44:45.765Z,9.90
2018-08-25T23:47:48.873Z,9.80
2018-08-25T23:50:51.946Z,9.80
2018-08-25T23:53:55.025Z,9.80
2018-08-25T23:57:04.582Z,9.70
